Selected Arizona METAR Reports


Metar stations are listed by distance from this station - near to far. The 'official' reporting station for the Greater Phoenix area is KPHX - Phoenix/Sky Harbor.

KDVT - Phoenix/Deer Valley, Arizona, USA
Distance from station: NW 4mi, 7km
Updated: Thu 25 May 2017 0853 MST
Clear
Clear
 Wind from W
Wind: W 9 mph , 15 km/h
Temperature: 84°F , 29°C
Dew Point: 30°F , -1°C
Humidity: 14%
Barometer: 29.70 inHg , 1005.8 hPa
Clouds: Clear
Visibility: 10 miles , 16 km
2017/05/25 15:53 KDVT 251553Z AUTO 26008KT 10SM CLR 29/M01 A2970 RMK AO2 SLP030 T02891011
KSDL - Scottsdale, Arizona, USA
Distance from station: ESE 6mi, 9km
Updated: Thu 25 May 2017 0853 MST
Clear
Clear
 Wind from calm
Wind: Calm
Temperature: 82°F , 28°C
Dew Point: 28°F , -2°C
Humidity: 14%
Barometer: 29.72 inHg , 1006.4 hPa
Clouds: Clear
Visibility: 10 miles , 16 km
2017/05/25 15:53 KSDL 251553Z 00000KT 10SM CLR 28/M02 A2972 RMK AO2 SLP033 T02831017
 
KPHX - Phoenix/Sky Harbor, Arizona, USA
Distance from station: S 15mi, 24km
Updated: Thu 25 May 2017 0851 MST
Mostly cloudy
Mostly cloudy
 Wind from E
Wind: E 7 mph , 11 km/h
Temperature: 86°F , 30°C
Dew Point: 30°F , -1°C
Humidity: 13%
Barometer: 29.67 inHg , 1004.7 hPa
Clouds: Mostly cloudy
Visibility: 10 miles , 16 km
Cloud details: Mostly cloudy 21000 ft
2017/05/25 15:51 KPHX 251551Z 08006KT 10SM BKN210 30/M01 A2967 RMK AO2 SLP026 T03001006
KGEU - Glendale, Arizona, USA
Distance from station: WSW 19mi, 30km
Updated: Thu 25 May 2017 0847 MST
Mostly cloudy
Mostly cloudy
 Wind from SW
Wind: SW 13 mph , 20 km/h
Temperature: 84°F , 29°C
Dew Point: 34°F , 1°C
Humidity: 16%
Barometer: 29.70 inHg , 1005.8 hPa
Clouds: Mostly cloudy
Visibility: 10 miles , 16 km
Cloud details: Partly cloudy 18000 ft
Mostly cloudy 25000 ft
2017/05/25 15:47 KGEU 251547Z 22011KT 10SM SCT180 BKN250 29/01 A2970
 
KFFZ - Mesa/Falcon Field, Arizona, USA
Distance from station: SE 21mi, 33km
Updated: Thu 25 May 2017 0848 MST
Partly cloudy
Partly cloudy
 Wind from S
Wind: S 9 mph , 15 km/h
Temperature: 86°F , 30°C
Dew Point: 30°F , -1°C
Humidity: 13%
Barometer: 29.71 inHg , 1006.1 hPa
Clouds: Partly cloudy
Visibility: 50 miles , 80 km
Cloud details: Partly cloudy 20000 ft
2017/05/25 15:48 KFFZ 251548Z 18008KT 50SM SCT200 30/M01 A2971
KLUF - Luke AFB/Glendale, Arizona, USA
Distance from station: WSW 23mi, 36km
Updated: Thu 25 May 2017 0858 MST
Clear
Clear
 Wind from SW
Wind: SW 12 mph , 19 km/h
Temperature: 84°F , 29°C
Dew Point: 34°F , 1°C
Humidity: 16%
Barometer: 29.68 inHg , 1005.1 hPa
Clouds: Clear
Visibility: 9 miles , 14 km
2017/05/25 15:58 KLUF 251558Z AUTO 23010KT 9SM CLR 29/01 A2968 RMK AO2 RAB04E18 SLP036 P0000 T02920011 $
 
KGYR - Goodyear Municipal, Arizona, USA
Distance from station: SW 26mi, 42km
Updated: Thu 25 May 2017 0847 MST
Mostly cloudy
Mostly cloudy
 Wind from W
Wind: W 12 mph , 19 km/h
Temperature: 84°F , 29°C
Dew Point: 37°F , 3°C
Humidity: 19%
Barometer: 29.68 inHg , 1005.1 hPa
Clouds: Mostly cloudy
Visibility: 10 miles , 16 km
Cloud details: Mostly cloudy 20000 ft
Mostly cloudy 25000 ft
2017/05/25 15:47 KGYR 251547Z 28010KT 10SM BKN200 BKN250 29/03 A2968
KIWA - Chandler/Mesa, Arizona, USA
Distance from station: SE 32mi, 51km
Updated: Thu 25 May 2017 0847 MST
Mostly cloudy
Mostly cloudy
 Wind from S
Wind: S 10 mph , 17 km/h
Temperature: 86°F , 30°C
Dew Point: 27°F , -3°C
Humidity: 11%
Barometer: 29.72 inHg , 1006.4 hPa
Clouds: Mostly cloudy
Visibility: 35 miles , 56 km
Cloud details: Mostly cloudy 12000 ft
2017/05/25 15:47 KIWA 251547Z 19009KT 35SM BKN120 30/M03 A2972
 
KBXK - Buckeye, Arizona, USA
Distance from station: WSW 42mi, 68km
Updated: Thu 25 May 2017 0855 MST
Clear
Clear
 Wind from S
Wind: S 7 mph , 11 km/h
Temperature: 84°F , 29°C
Dew Point: 36°F , 2°C
Humidity: 18%
Barometer: 29.69 inHg , 1005.4 hPa
Clouds: Clear
Visibility: 10 miles , 16 km
2017/05/25 15:55 KBXK 251555Z AUTO 19006KT 10SM CLR 29/02 A2969 RMK AO1
KCGZ - Casa Grande, Arizona, USA
Distance from station: SSE 50mi, 81km
Updated: Thu 25 May 2017 0856 MST
Clear
Clear
 Wind from SSW
Wind: SSW 18 mph , 30 km/h
Temperature: 88°F , 31°C
Dew Point: 27°F , -3°C
Humidity: 11%
Barometer: 29.72 inHg , 1006.4 hPa
Clouds: Clear
Visibility: 10 miles , 16 km
2017/05/25 15:56 KCGZ 251556Z AUTO 20016KT 10SM CLR 31/M03 A2972 RMK AO2 SLP046 T03061028 $
 
KPAN - Payson, Arizona, USA
Distance from station: NE 57mi, 91km
Updated: Thu 25 May 2017 0855 MST
Clear
Clear
 Wind from SSW
Wind: SSW 8 mph , 13 km/h, Gust: 15 mph , 24 km/h
Temperature: 73°F , 23°C
Dew Point: 23°F , -5°C
Humidity: 15%
Barometer: 29.93 inHg , 1013.5 hPa
Clouds: Clear
Visibility: 10 miles , 16 km
2017/05/25 15:55 KPAN 251555Z AUTO 21007G13KT 10SM CLR 23/M05 A2993 RMK AO2
KGBN - Gila Bend (aaf), Arizona, USA
Distance from station: SW 68mi, 109km
Updated: Wed 13 Feb 2013 1755 MST
NOT Current
Clear
Clear
 Wind from NNE
Wind: NNE 6 mph , 9 km/h
Temperature: 61°F , 16°C
Dew Point: 19°F , -7°C
Humidity: 20%
Barometer: 30.12 inHg , 1020 hPa
Clouds: Clear
Visibility: 90 miles , 144 km
2013/02/14 00:55 KGBN 140055Z 02005KT 90SM SKC 16/M07 A3012 RMK SLP204
 
KPRC - Prescott, Arizona, USA
Distance from station: NNW 73mi, 118km
Updated: Thu 25 May 2017 0853 MST
Clear
Clear
 Wind from S
Wind: S 9 mph , 15 km/h
Temperature: 73°F , 23°C
Dew Point: 18°F , -8°C
Humidity: 12%
Barometer: 29.85 inHg , 1010.8 hPa
Clouds: Clear
Visibility: 10 miles , 16 km
2017/05/25 15:53 KPRC 251553Z 19008KT 10SM CLR 23/M08 A2985 RMK AO2 SLP024 T02281083
KSEZ - Sedona, Arizona, USA
Distance from station: N 84mi, 135km
Updated: Thu 25 May 2017 0855 MST
Clear
Clear
 Wind from SE
Wind: SE 16 mph , 26 km/h, Gust: 28 mph , 44 km/h
Temperature: 77°F , 25°C
Dew Point: 27°F , -3°C
Humidity: 15%
Barometer: 29.84 inHg , 1010.5 hPa
Clouds: Clear
Visibility: 10 miles , 16 km
2017/05/25 15:55 KSEZ 251555Z AUTO 14014G24KT 10SM CLR 25/M03 A2984 RMK AO2
 
KFLG - Flagstaff, Arizona, USA
Distance from station: N 105mi, 168km
Updated: Thu 25 May 2017 0857 MST
Clear
Clear
 Wind from SSW
Wind: SSW 23 mph , 37 km/h, Gust: 31 mph , 50 km/h
Temperature: 63°F , 17°C
Dew Point: 21°F , -6°C
Humidity: 20%
Barometer: 29.93 inHg , 1013.5 hPa
Clouds: Clear
Visibility: 10 miles , 16 km
2017/05/25 15:57 KFLG 251557Z 21020G27KT 10SM CLR 17/M06 A2993 RMK AO2 PK WND 20028/1501 SLP029 T01671061
KRYN - Tucson/Ryan Field, Arizona, USA
Distance from station: SSE 114mi, 184km
Updated: Thu 25 May 2017 0850 MST
Clear
Clear
 Wind from SSW
Wind: SSW 21 mph , 33 km/h, Gust: 28 mph , 44 km/h
Temperature: 88°F , 31°C
Dew Point: 19°F , -7°C
Humidity: 8%
Barometer: 29.79 inHg , 1008.8 hPa
Clouds: Clear
Visibility: 10 miles , 16 km
2017/05/25 15:50 KRYN 251550Z 21018G24KT 10SM CLR 31/M07 A2979
 
KCMR - Williams Clark, Arizona, USA
Distance from station: N 115mi, 185km
Updated: Thu 25 May 2017 0855 MST
Clear
Clear
 Wind from SW
Wind: SW 21 mph , 33 km/h, Gust: 33 mph , 54 km/h
Temperature: 68°F , 20°C
Dew Point: 21°F , -6°C
Humidity: 17%
Barometer: 29.90 inHg , 1012.5 hPa
Clouds: Clear
Visibility: 10 miles , 16 km
2017/05/25 15:55 KCMR 251555Z AUTO 22018G29KT 10SM CLR 20/M06 A2990 RMK AO2
KINW - Winslow, Arizona, USA
Distance from station: NE 121mi, 194km
Updated: Thu 25 May 2017 0856 MST
Clear
Clear
 Wind from SSW
Wind: SSW 26 mph , 43 km/h, Gust: 33 mph , 54 km/h
Temperature: 81°F , 27°C
Dew Point: 16°F , -9°C
Humidity: 9%
Barometer: 29.81 inHg , 1009.5 hPa
Clouds: Clear
Visibility: 10 miles , 16 km
2017/05/25 15:56 KINW 251556Z AUTO 21023G29KT 10SM CLR 27/M09 A2981 RMK AO2 PK WND 21029/1547 SLP011 T02671094
 
KTUS - Tucson, Arizona, USA
Distance from station: SSE 121mi, 195km
Updated: Thu 25 May 2017 0853 MST
Clear
Clear
 Wind from SSW
Wind: SSW 14 mph , 22 km/h
Temperature: 88°F , 31°C
Dew Point: 19°F , -7°C
Humidity: 8%
Barometer: 29.81 inHg , 1009.5 hPa
Clouds: Clear
Visibility: 10 miles , 16 km
2017/05/25 15:53 KTUS 251553Z 20012KT 10SM CLR 31/M07 A2981 RMK AO2 SLP041 T03061072
KDMA - Davis AFB/Tucson, Arizona, USA
Distance from station: SE 122mi, 196km
Updated: Thu 25 May 2017 0858 MST
Few Clouds
Few Clouds
 Wind from SSW
Wind: SSW 15 mph , 24 km/h
Temperature: 86°F , 30°C
Dew Point: 19°F , -7°C
Humidity: 8%
Barometer: 29.81 inHg , 1009.5 hPa
Clouds: Few Clouds
Visibility: 10 miles , 16 km
Cloud details: Few Clouds 20000 ft
2017/05/25 15:58 KDMA 251558Z AUTO 20013KT 10SM FEW200 30/M07 A2981 RMK AO2 SLP045 T02991068 CHINO RWY30 $
 
KSOW - Show Low Municipal, Arizona, USA
Distance from station: ENE 123mi, 198km
Updated: Thu 25 May 2017 0855 MST
Clear
Clear
 Wind from SSW
Wind: SSW 24 mph , 39 km/h, Gust: 32 mph , 52 km/h
Temperature: 66°F , 19°C
Dew Point: 16°F , -9°C
Humidity: 14%
Barometer: 29.94 inHg , 1013.9 hPa
Clouds: Clear
Visibility: 10 miles , 16 km
2017/05/25 15:55 KSOW 251555Z AUTO 20021G28KT 10SM CLR 19/M09 A2994 RMK AO2
KSAD - Safford, Arizona, USA
Distance from station: ESE 148mi, 238km
Updated: Thu 25 May 2017 0851 MST
Clear
Clear
 Wind from varies
Wind: varies 5 mph , 7 km/h
Temperature: 84°F , 29°C
Dew Point: 21°F , -6°C
Humidity: 10%
Barometer: 29.79 inHg , 1008.8 hPa
Clouds: Clear
Visibility: 10 miles , 16 km
2017/05/25 15:51 KSAD 251551Z AUTO VRB04KT 10SM CLR 29/M06 A2979 RMK AO2 SLP028 T02941061